sensor_id;sensor_type;location;lat;lon;timestamp;P1;durP1;ratioP1;P2;durP2;ratioP2
8232;SDS011;4157;48.074;9.952;2023-07-20T00:00:31;4.60;;;1.17;;
8232;SDS011;4157;48.074;9.952;2023-07-20T00:03:09;2.50;;;1.17;;
8232;SDS011;4157;48.074;9.952;2023-07-20T00:05:38;8.77;;;1.48;;
8232;SDS011;4157;48.074;9.952;2023-07-20T00:08:06;3.30;;;1.40;;
8232;SDS011;4157;48.074;9.952;2023-07-20T00:10:35;5.10;;;1.10;;
8232;SDS011;4157;48.074;9.952;2023-07-20T00:13:02;2.88;;;1.20;;
8232;SDS011;4157;48.074;9.952;2023-07-20T00:15:30;3.33;;;1.50;;
8232;SDS011;4157;48.074;9.952;2023-07-20T00:17:58;4.32;;;1.45;;
8232;SDS011;4157;48.074;9.952;2023-07-20T00:20:25;3.80;;;1.10;;
8232;SDS011;4157;48.074;9.952;2023-07-20T00:22:53;4.78;;;1.30;;
8232;SDS011;4157;48.074;9.952;2023-07-20T00:25:23;2.22;;;1.05;;
8232;SDS011;4157;48.074;9.952;2023-07-20T00:27:52;3.45;;;1.20;;
8232;SDS011;4157;48.074;9.952;2023-07-20T00:30:20;4.20;;;1.20;;
8232;SDS011;4157;48.074;9.952;2023-07-20T00:32:47;3.83;;;1.30;;
8232;SDS011;4157;48.074;9.952;2023-07-20T00:35:15;5.38;;;1.58;;
8232;SDS011;4157;48.074;9.952;2023-07-20T00:37:43;5.10;;;1.50;;
8232;SDS011;4157;48.074;9.952;2023-07-20T00:40:11;7.90;;;1.33;;
8232;SDS011;4157;48.074;9.952;2023-07-20T00:42:38;4.22;;;1.35;;
8232;SDS011;4157;48.074;9.952;2023-07-20T00:45:08;3.47;;;1.40;;
8232;SDS011;4157;48.074;9.952;2023-07-20T00:47:36;3.40;;;1.20;;
8232;SDS011;4157;48.074;9.952;2023-07-20T00:50:04;6.47;;;1.30;;
8232;SDS011;4157;48.074;9.952;2023-07-20T00:52:33;3.80;;;1.20;;
8232;SDS011;4157;48.074;9.952;2023-07-20T00:55:01;4.38;;;1.13;;
8232;SDS011;4157;48.074;9.952;2023-07-20T00:57:29;3.05;;;1.20;;
8232;SDS011;4157;48.074;9.952;2023-07-20T00:59:58;3.30;;;1.48;;
8232;SDS011;4157;48.074;9.952;2023-07-20T01:02:27;4.50;;;1.50;;
8232;SDS011;4157;48.074;9.952;2023-07-20T01:04:55;8.13;;;1.55;;
8232;SDS011;4157;48.074;9.952;2023-07-20T01:07:25;2.95;;;1.40;;
8232;SDS011;4157;48.074;9.952;2023-07-20T01:09:56;3.42;;;1.20;;
8232;SDS011;4157;48.074;9.952;2023-07-20T01:12:27;3.63;;;1.40;;
8232;SDS011;4157;48.074;9.952;2023-07-20T01:14:57;3.30;;;1.40;;
8232;SDS011;4157;48.074;9.952;2023-07-20T01:17:25;2.70;;;1.25;;
8232;SDS011;4157;48.074;9.952;2023-07-20T01:19:54;5.22;;;1.55;;
8232;SDS011;4157;48.074;9.952;2023-07-20T01:22:28;3.78;;;1.48;;
8232;SDS011;4157;48.074;9.952;2023-07-20T01:25:06;4.32;;;1.50;;
8232;SDS011;4157;48.074;9.952;2023-07-20T01:30:33;5.10;;;1.50;;
8232;SDS011;4157;48.074;9.952;2023-07-20T01:33:03;5.82;;;1.38;;
8232;SDS011;4157;48.074;9.952;2023-07-20T01:35:32;4.18;;;1.42;;
8232;SDS011;4157;48.074;9.952;2023-07-20T01:38:01;4.18;;;1.40;;
8232;SDS011;4157;48.074;9.952;2023-07-20T01:40:29;5.35;;;1.80;;
8232;SDS011;4157;48.074;9.952;2023-07-20T01:42:57;3.97;;;1.65;;
8232;SDS011;4157;48.074;9.952;2023-07-20T01:45:24;7.68;;;2.45;;
8232;SDS011;4157;48.074;9.952;2023-07-20T01:47:52;6.15;;;2.20;;
8232;SDS011;4157;48.074;9.952;2023-07-20T01:50:21;4.90;;;1.90;;
8232;SDS011;4157;48.074;9.952;2023-07-20T01:52:49;2.95;;;1.38;;
8232;SDS011;4157;48.074;9.952;2023-07-20T01:55:16;4.15;;;1.70;;
8232;SDS011;4157;48.074;9.952;2023-07-20T01:57:44;6.30;;;1.63;;
8232;SDS011;4157;48.074;9.952;2023-07-20T02:00:12;3.35;;;1.50;;
8232;SDS011;4157;48.074;9.952;2023-07-20T02:02:42;3.13;;;1.40;;
8232;SDS011;4157;48.074;9.952;2023-07-20T02:05:10;3.80;;;1.90;;
8232;SDS011;4157;48.074;9.952;2023-07-20T02:07:39;5.28;;;1.48;;
8232;SDS011;4157;48.074;9.952;2023-07-20T02:10:07;4.85;;;1.80;;
8232;SDS011;4157;48.074;9.952;2023-07-20T02:12:34;6.85;;;1.88;;
8232;SDS011;4157;48.074;9.952;2023-07-20T02:15:03;4.65;;;1.85;;
8232;SDS011;4157;48.074;9.952;2023-07-20T02:17:31;4.95;;;1.63;;
8232;SDS011;4157;48.074;9.952;2023-07-20T02:20:00;6.88;;;2.08;;
8232;SDS011;4157;48.074;9.952;2023-07-20T02:22:28;6.00;;;1.92;;
8232;SDS011;4157;48.074;9.952;2023-07-20T02:24:57;4.57;;;2.00;;
8232;SDS011;4157;48.074;9.952;2023-07-20T02:27:25;4.93;;;1.90;;
8232;SDS011;4157;48.074;9.952;2023-07-20T02:29:53;6.50;;;2.10;;
8232;SDS011;4157;48.074;9.952;2023-07-20T02:32:20;3.75;;;2.00;;
8232;SDS011;4157;48.074;9.952;2023-07-20T02:34:48;5.28;;;2.30;;
8232;SDS011;4157;48.074;9.952;2023-07-20T02:37:16;9.13;;;1.95;;
8232;SDS011;4157;48.074;9.952;2023-07-20T02:39:43;5.03;;;1.92;;
8232;SDS011;4157;48.074;9.952;2023-07-20T02:42:12;5.00;;;2.20;;
8232;SDS011;4157;48.074;9.952;2023-07-20T02:44:41;7.85;;;2.10;;
8232;SDS011;4157;48.074;9.952;2023-07-20T02:47:09;4.90;;;2.08;;
8232;SDS011;4157;48.074;9.952;2023-07-20T02:49:36;6.40;;;1.80;;
8232;SDS011;4157;48.074;9.952;2023-07-20T02:52:04;6.00;;;2.22;;
8232;SDS011;4157;48.074;9.952;2023-07-20T02:54:32;4.85;;;1.95;;
8232;SDS011;4157;48.074;9.952;2023-07-20T02:57:00;4.82;;;2.22;;
8232;SDS011;4157;48.074;9.952;2023-07-20T02:59:29;4.80;;;1.90;;
8232;SDS011;4157;48.074;9.952;2023-07-20T03:01:56;4.85;;;2.00;;
8232;SDS011;4157;48.074;9.952;2023-07-20T03:04:25;5.50;;;1.90;;
8232;SDS011;4157;48.074;9.952;2023-07-20T03:06:53;3.88;;;1.90;;
8232;SDS011;4157;48.074;9.952;2023-07-20T03:09:21;4.38;;;2.20;;
8232;SDS011;4157;48.074;9.952;2023-07-20T03:11:49;5.35;;;2.30;;
8232;SDS011;4157;48.074;9.952;2023-07-20T03:14:17;5.20;;;2.20;;
8232;SDS011;4157;48.074;9.952;2023-07-20T03:16:46;7.18;;;2.00;;
8232;SDS011;4157;48.074;9.952;2023-07-20T03:19:14;4.30;;;2.15;;
8232;SDS011;4157;48.074;9.952;2023-07-20T03:21:42;7.22;;;2.60;;
8232;SDS011;4157;48.074;9.952;2023-07-20T03:24:10;7.28;;;2.47;;
8232;SDS011;4157;48.074;9.952;2023-07-20T03:26:37;5.35;;;2.25;;
8232;SDS011;4157;48.074;9.952;2023-07-20T03:29:06;4.18;;;2.38;;
8232;SDS011;4157;48.074;9.952;2023-07-20T03:31:34;6.00;;;2.17;;
8232;SDS011;4157;48.074;9.952;2023-07-20T03:34:03;4.50;;;2.10;;
8232;SDS011;4157;48.074;9.952;2023-07-20T03:36:31;5.10;;;2.20;;
8232;SDS011;4157;48.074;9.952;2023-07-20T03:38:59;5.22;;;2.35;;
8232;SDS011;4157;48.074;9.952;2023-07-20T03:41:26;5.22;;;2.22;;
8232;SDS011;4157;48.074;9.952;2023-07-20T03:43:54;6.70;;;2.17;;
8232;SDS011;4157;48.074;9.952;2023-07-20T03:46:22;5.97;;;2.50;;
8232;SDS011;4157;48.074;9.952;2023-07-20T03:48:49;4.75;;;2.10;;
8232;SDS011;4157;48.074;9.952;2023-07-20T03:51:18;4.70;;;2.03;;
8232;SDS011;4157;48.074;9.952;2023-07-20T03:53:46;4.53;;;2.00;;
8232;SDS011;4157;48.074;9.952;2023-07-20T03:56:14;4.55;;;2.22;;
8232;SDS011;4157;48.074;9.952;2023-07-20T03:58:41;4.93;;;2.17;;
8232;SDS011;4157;48.074;9.952;2023-07-20T04:01:09;5.30;;;2.30;;
8232;SDS011;4157;48.074;9.952;2023-07-20T04:03:38;6.65;;;2.30;;
8232;SDS011;4157;48.074;9.952;2023-07-20T04:06:06;5.30;;;2.42;;
8232;SDS011;4157;48.074;9.952;2023-07-20T04:08:35;5.78;;;2.30;;
8232;SDS011;4157;48.074;9.952;2023-07-20T04:11:03;6.55;;;2.65;;
8232;SDS011;4157;48.074;9.952;2023-07-20T04:13:31;7.07;;;2.50;;
8232;SDS011;4157;48.074;9.952;2023-07-20T04:16:00;3.97;;;2.00;;
8232;SDS011;4157;48.074;9.952;2023-07-20T04:18:28;8.70;;;2.67;;
8232;SDS011;4157;48.074;9.952;2023-07-20T04:20:56;5.95;;;2.80;;
8232;SDS011;4157;48.074;9.952;2023-07-20T04:23:23;6.30;;;2.47;;
8232;SDS011;4157;48.074;9.952;2023-07-20T04:25:53;7.28;;;2.45;;
8232;SDS011;4157;48.074;9.952;2023-07-20T04:28:20;5.43;;;2.70;;
8232;SDS011;4157;48.074;9.952;2023-07-20T04:30:49;6.43;;;2.85;;
8232;SDS011;4157;48.074;9.952;2023-07-20T04:33:17;10.07;;;2.80;;
8232;SDS011;4157;48.074;9.952;2023-07-20T04:35:49;7.43;;;2.72;;
8232;SDS011;4157;48.074;9.952;2023-07-20T04:38:21;4.85;;;2.55;;
8232;SDS011;4157;48.074;9.952;2023-07-20T04:40:58;8.80;;;2.50;;
8232;SDS011;4157;48.074;9.952;2023-07-20T04:43:28;5.28;;;2.80;;
8232;SDS011;4157;48.074;9.952;2023-07-20T04:45:56;6.13;;;2.58;;
8232;SDS011;4157;48.074;9.952;2023-07-20T04:48:24;7.82;;;2.55;;
8232;SDS011;4157;48.074;9.952;2023-07-20T04:50:54;9.45;;;2.80;;
8232;SDS011;4157;48.074;9.952;2023-07-20T04:53:22;7.10;;;2.40;;
8232;SDS011;4157;48.074;9.952;2023-07-20T04:55:50;6.65;;;2.72;;
8232;SDS011;4157;48.074;9.952;2023-07-20T04:58:21;5.80;;;2.40;;
8232;SDS011;4157;48.074;9.952;2023-07-20T05:00:51;7.53;;;2.42;;
8232;SDS011;4157;48.074;9.952;2023-07-20T05:03:19;6.55;;;2.22;;
8232;SDS011;4157;48.074;9.952;2023-07-20T05:05:48;6.43;;;2.58;;
8232;SDS011;4157;48.074;9.952;2023-07-20T05:08:16;6.22;;;2.60;;
8232;SDS011;4157;48.074;9.952;2023-07-20T05:10:43;5.25;;;2.28;;
8232;SDS011;4157;48.074;9.952;2023-07-20T05:13:11;6.78;;;2.92;;
8232;SDS011;4157;48.074;9.952;2023-07-20T05:15:40;5.25;;;2.42;;
8232;SDS011;4157;48.074;9.952;2023-07-20T05:18:11;6.80;;;3.10;;
8232;SDS011;4157;48.074;9.952;2023-07-20T05:20:45;6.32;;;2.63;;
8232;SDS011;4157;48.074;9.952;2023-07-20T05:23:14;5.15;;;2.75;;
8232;SDS011;4157;48.074;9.952;2023-07-20T05:25:42;6.30;;;2.53;;
8232;SDS011;4157;48.074;9.952;2023-07-20T05:28:09;6.20;;;3.45;;
8232;SDS011;4157;48.074;9.952;2023-07-20T05:30:37;6.13;;;2.92;;
8232;SDS011;4157;48.074;9.952;2023-07-20T05:33:06;8.35;;;2.72;;
8232;SDS011;4157;48.074;9.952;2023-07-20T05:35:34;6.20;;;2.92;;
8232;SDS011;4157;48.074;9.952;2023-07-20T05:38:03;5.35;;;2.90;;
8232;SDS011;4157;48.074;9.952;2023-07-20T05:40:32;7.30;;;2.50;;
8232;SDS011;4157;48.074;9.952;2023-07-20T05:42:59;6.43;;;2.30;;
8232;SDS011;4157;48.074;9.952;2023-07-20T05:45:27;5.30;;;2.30;;
8232;SDS011;4157;48.074;9.952;2023-07-20T05:47:55;6.10;;;2.28;;
8232;SDS011;4157;48.074;9.952;2023-07-20T05:50:24;7.68;;;2.70;;
8232;SDS011;4157;48.074;9.952;2023-07-20T05:52:52;6.30;;;2.45;;
8232;SDS011;4157;48.074;9.952;2023-07-20T05:55:19;5.07;;;2.45;;
8232;SDS011;4157;48.074;9.952;2023-07-20T05:57:47;6.68;;;2.67;;
8232;SDS011;4157;48.074;9.952;2023-07-20T06:00:15;6.03;;;2.47;;
8232;SDS011;4157;48.074;9.952;2023-07-20T06:02:44;6.85;;;2.47;;
8232;SDS011;4157;48.074;9.952;2023-07-20T06:05:13;4.28;;;2.40;;
8232;SDS011;4157;48.074;9.952;2023-07-20T06:07:42;5.97;;;2.55;;
8232;SDS011;4157;48.074;9.952;2023-07-20T06:10:10;6.60;;;2.72;;
8232;SDS011;4157;48.074;9.952;2023-07-20T06:12:37;7.03;;;2.30;;
8232;SDS011;4157;48.074;9.952;2023-07-20T06:15:05;4.35;;;2.17;;
8232;SDS011;4157;48.074;9.952;2023-07-20T06:17:33;5.93;;;2.00;;
8232;SDS011;4157;48.074;9.952;2023-07-20T06:20:01;7.25;;;2.25;;
8232;SDS011;4157;48.074;9.952;2023-07-20T06:22:29;6.40;;;2.38;;
8232;SDS011;4157;48.074;9.952;2023-07-20T06:24:58;6.78;;;2.40;;
8232;SDS011;4157;48.074;9.952;2023-07-20T06:27:26;4.97;;;2.40;;
8232;SDS011;4157;48.074;9.952;2023-07-20T06:29:53;4.40;;;2.13;;
8232;SDS011;4157;48.074;9.952;2023-07-20T06:32:21;7.93;;;2.30;;
8232;SDS011;4157;48.074;9.952;2023-07-20T06:34:49;6.10;;;2.38;;
8232;SDS011;4157;48.074;9.952;2023-07-20T06:37:16;5.18;;;2.20;;
8232;SDS011;4157;48.074;9.952;2023-07-20T06:39:45;6.50;;;2.88;;
8232;SDS011;4157;48.074;9.952;2023-07-20T06:42:14;5.15;;;2.30;;
8232;SDS011;4157;48.074;9.952;2023-07-20T06:44:42;4.78;;;2.58;;
8232;SDS011;4157;48.074;9.952;2023-07-20T06:47:09;4.25;;;1.98;;
8232;SDS011;4157;48.074;9.952;2023-07-20T06:49:38;5.18;;;2.08;;
8232;SDS011;4157;48.074;9.952;2023-07-20T06:52:06;10.05;;;2.60;;
8232;SDS011;4157;48.074;9.952;2023-07-20T06:54:34;9.48;;;2.30;;
8232;SDS011;4157;48.074;9.952;2023-07-20T06:57:02;4.95;;;2.05;;
8232;SDS011;4157;48.074;9.952;2023-07-20T06:59:31;6.00;;;2.72;;
8232;SDS011;4157;48.074;9.952;2023-07-20T07:01:58;5.60;;;2.05;;
8232;SDS011;4157;48.074;9.952;2023-07-20T07:04:26;5.65;;;1.80;;
8232;SDS011;4157;48.074;9.952;2023-07-20T07:06:54;4.53;;;2.13;;
8232;SDS011;4157;48.074;9.952;2023-07-20T07:09:21;6.57;;;2.35;;
8232;SDS011;4157;48.074;9.952;2023-07-20T07:11:50;5.28;;;2.03;;
8232;SDS011;4157;48.074;9.952;2023-07-20T07:14:19;4.93;;;1.90;;
8232;SDS011;4157;48.074;9.952;2023-07-20T07:16:48;5.90;;;2.00;;
8232;SDS011;4157;48.074;9.952;2023-07-20T07:19:16;4.25;;;1.85;;
8232;SDS011;4157;48.074;9.952;2023-07-20T07:21:44;4.15;;;2.10;;
8232;SDS011;4157;48.074;9.952;2023-07-20T07:24:11;6.13;;;2.30;;
8232;SDS011;4157;48.074;9.952;2023-07-20T07:26:39;6.53;;;2.60;;
8232;SDS011;4157;48.074;9.952;2023-07-20T07:29:07;10.07;;;2.20;;
8232;SDS011;4157;48.074;9.952;2023-07-20T07:31:35;5.63;;;2.45;;
8232;SDS011;4157;48.074;9.952;2023-07-20T07:34:05;5.18;;;2.08;;
8232;SDS011;4157;48.074;9.952;2023-07-20T07:36:33;4.90;;;2.35;;
8232;SDS011;4157;48.074;9.952;2023-07-20T07:39:00;6.40;;;2.42;;
8232;SDS011;4157;48.074;9.952;2023-07-20T07:41:28;5.18;;;2.25;;
8232;SDS011;4157;48.074;9.952;2023-07-20T07:43:56;5.85;;;2.25;;
8232;SDS011;4157;48.074;9.952;2023-07-20T07:46:23;4.65;;;2.20;;
8232;SDS011;4157;48.074;9.952;2023-07-20T07:48:51;5.25;;;2.30;;
8232;SDS011;4157;48.074;9.952;2023-07-20T07:51:20;6.28;;;2.45;;
8232;SDS011;4157;48.074;9.952;2023-07-20T07:53:48;5.78;;;1.95;;
8232;SDS011;4157;48.074;9.952;2023-07-20T07:56:15;4.72;;;1.80;;
8232;SDS011;4157;48.074;9.952;2023-07-20T07:58:48;7.10;;;2.00;;
8232;SDS011;4157;48.074;9.952;2023-07-20T08:01:17;5.57;;;1.65;;
8232;SDS011;4157;48.074;9.952;2023-07-20T08:03:45;5.05;;;1.95;;
8232;SDS011;4157;48.074;9.952;2023-07-20T08:06:13;6.53;;;2.00;;
8232;SDS011;4157;48.074;9.952;2023-07-20T08:08:42;5.43;;;1.92;;
8232;SDS011;4157;48.074;9.952;2023-07-20T08:11:10;5.88;;;2.00;;
8232;SDS011;4157;48.074;9.952;2023-07-20T08:13:37;6.20;;;2.05;;
8232;SDS011;4157;48.074;9.952;2023-07-20T08:16:05;6.68;;;2.13;;
8232;SDS011;4157;48.074;9.952;2023-07-20T08:18:33;4.95;;;1.80;;
8232;SDS011;4157;48.074;9.952;2023-07-20T08:21:00;3.13;;;1.65;;
8232;SDS011;4157;48.074;9.952;2023-07-20T08:23:28;3.60;;;1.88;;
8232;SDS011;4157;48.074;9.952;2023-07-20T08:25:57;3.63;;;1.75;;
8232;SDS011;4157;48.074;9.952;2023-07-20T08:28:26;4.47;;;2.35;;
8232;SDS011;4157;48.074;9.952;2023-07-20T08:30:54;4.75;;;1.95;;
8232;SDS011;4157;48.074;9.952;2023-07-20T08:33:22;4.85;;;1.95;;
8232;SDS011;4157;48.074;9.952;2023-07-20T08:35:50;3.28;;;1.75;;
8232;SDS011;4157;48.074;9.952;2023-07-20T08:38:17;4.18;;;1.85;;
8232;SDS011;4157;48.074;9.952;2023-07-20T08:40:45;3.72;;;1.77;;
8232;SDS011;4157;48.074;9.952;2023-07-20T08:43:15;5.85;;;2.15;;
8232;SDS011;4157;48.074;9.952;2023-07-20T08:45:44;4.22;;;1.85;;
8232;SDS011;4157;48.074;9.952;2023-07-20T08:48:12;5.82;;;1.95;;
8232;SDS011;4157;48.074;9.952;2023-07-20T08:50:40;4.90;;;1.70;;
8232;SDS011;4157;48.074;9.952;2023-07-20T08:53:08;4.75;;;1.90;;
8232;SDS011;4157;48.074;9.952;2023-07-20T08:55:37;4.78;;;1.88;;
8232;SDS011;4157;48.074;9.952;2023-07-20T08:58:07;5.40;;;1.63;;
8232;SDS011;4157;48.074;9.952;2023-07-20T09:00:37;5.05;;;1.80;;
8232;SDS011;4157;48.074;9.952;2023-07-20T09:03:05;5.93;;;2.00;;
8232;SDS011;4157;48.074;9.952;2023-07-20T09:05:34;4.72;;;1.77;;
8232;SDS011;4157;48.074;9.952;2023-07-20T09:08:02;5.15;;;1.70;;
8232;SDS011;4157;48.074;9.952;2023-07-20T09:10:31;3.92;;;1.40;;
8232;SDS011;4157;48.074;9.952;2023-07-20T09:12:58;5.78;;;1.70;;
8232;SDS011;4157;48.074;9.952;2023-07-20T09:15:26;4.68;;;1.90;;
8232;SDS011;4157;48.074;9.952;2023-07-20T09:17:55;4.20;;;1.70;;
8232;SDS011;4157;48.074;9.952;2023-07-20T09:20:23;5.95;;;1.95;;
8232;SDS011;4157;48.074;9.952;2023-07-20T09:22:50;3.67;;;1.50;;
8232;SDS011;4157;48.074;9.952;2023-07-20T09:25:19;6.68;;;1.70;;
8232;SDS011;4157;48.074;9.952;2023-07-20T09:27:48;5.65;;;1.80;;
8232;SDS011;4157;48.074;9.952;2023-07-20T09:30:16;9.63;;;2.00;;
8232;SDS011;4157;48.074;9.952;2023-07-20T09:32:44;5.25;;;2.03;;
8232;SDS011;4157;48.074;9.952;2023-07-20T09:35:13;5.78;;;1.67;;
8232;SDS011;4157;48.074;9.952;2023-07-20T09:37:45;3.75;;;1.52;;
8232;SDS011;4157;48.074;9.952;2023-07-20T09:40:17;4.32;;;1.77;;
8232;SDS011;4157;48.074;9.952;2023-07-20T09:42:44;6.88;;;2.00;;
8232;SDS011;4157;48.074;9.952;2023-07-20T09:45:12;4.53;;;1.80;;
8232;SDS011;4157;48.074;9.952;2023-07-20T09:47:40;7.80;;;2.05;;
8232;SDS011;4157;48.074;9.952;2023-07-20T09:50:08;4.85;;;1.90;;
8232;SDS011;4157;48.074;9.952;2023-07-20T09:52:39;3.28;;;1.50;;
8232;SDS011;4157;48.074;9.952;2023-07-20T09:55:07;6.90;;;2.00;;
8232;SDS011;4157;48.074;9.952;2023-07-20T09:57:37;4.60;;;1.70;;
8232;SDS011;4157;48.074;9.952;2023-07-20T10:00:05;3.50;;;1.65;;
8232;SDS011;4157;48.074;9.952;2023-07-20T10:05:06;5.25;;;1.83;;
8232;SDS011;4157;48.074;9.952;2023-07-20T10:07:36;3.78;;;1.48;;
8232;SDS011;4157;48.074;9.952;2023-07-20T10:10:09;5.13;;;1.52;;
8232;SDS011;4157;48.074;9.952;2023-07-20T10:12:37;5.28;;;1.73;;
8232;SDS011;4157;48.074;9.952;2023-07-20T10:15:09;5.38;;;1.98;;
8232;SDS011;4157;48.074;9.952;2023-07-20T10:17:40;4.63;;;1.77;;
8232;SDS011;4157;48.074;9.952;2023-07-20T10:20:16;4.90;;;1.67;;
8232;SDS011;4157;48.074;9.952;2023-07-20T10:22:44;5.35;;;1.80;;
8232;SDS011;4157;48.074;9.952;2023-07-20T10:25:13;6.03;;;1.90;;
8232;SDS011;4157;48.074;9.952;2023-07-20T10:27:42;6.00;;;2.13;;
8232;SDS011;4157;48.074;9.952;2023-07-20T10:30:10;7.70;;;1.73;;
8232;SDS011;4157;48.074;9.952;2023-07-20T10:32:37;3.78;;;1.50;;
8232;SDS011;4157;48.074;9.952;2023-07-20T10:35:11;4.68;;;1.80;;
8232;SDS011;4157;48.074;9.952;2023-07-20T10:37:46;5.32;;;1.65;;
8232;SDS011;4157;48.074;9.952;2023-07-20T10:40:25;4.65;;;1.80;;
8232;SDS011;4157;48.074;9.952;2023-07-20T10:42:56;7.20;;;1.85;;
8232;SDS011;4157;48.074;9.952;2023-07-20T10:45:32;3.75;;;1.80;;
8232;SDS011;4157;48.074;9.952;2023-07-20T10:48:02;5.20;;;1.85;;
8232;SDS011;4157;48.074;9.952;2023-07-20T10:50:30;4.82;;;1.80;;
8232;SDS011;4157;48.074;9.952;2023-07-20T10:53:09;3.72;;;1.73;;
8232;SDS011;4157;48.074;9.952;2023-07-20T10:55:39;4.82;;;2.00;;
8232;SDS011;4157;48.074;9.952;2023-07-20T10:58:08;5.40;;;2.10;;
8232;SDS011;4157;48.074;9.952;2023-07-20T11:00:37;6.85;;;1.95;;
8232;SDS011;4157;48.074;9.952;2023-07-20T11:03:04;4.22;;;1.80;;
8232;SDS011;4157;48.074;9.952;2023-07-20T11:05:33;4.95;;;1.70;;
8232;SDS011;4157;48.074;9.952;2023-07-20T11:08:03;4.13;;;1.73;;
8232;SDS011;4157;48.074;9.952;2023-07-20T11:10:30;4.53;;;1.73;;
8232;SDS011;4157;48.074;9.952;2023-07-20T11:13:22;4.65;;;2.05;;
8232;SDS011;4157;48.074;9.952;2023-07-20T11:16:03;5.60;;;2.00;;
8232;SDS011;4157;48.074;9.952;2023-07-20T11:18:34;6.10;;;2.13;;
8232;SDS011;4157;48.074;9.952;2023-07-20T11:23:33;7.28;;;2.00;;
8232;SDS011;4157;48.074;9.952;2023-07-20T11:26:01;4.85;;;2.00;;
8232;SDS011;4157;48.074;9.952;2023-07-20T11:28:31;4.13;;;1.90;;
8232;SDS011;4157;48.074;9.952;2023-07-20T11:30:58;4.40;;;1.85;;
8232;SDS011;4157;48.074;9.952;2023-07-20T11:33:26;4.70;;;1.90;;
8232;SDS011;4157;48.074;9.952;2023-07-20T11:35:54;4.30;;;2.00;;
8232;SDS011;4157;48.074;9.952;2023-07-20T11:38:21;6.00;;;1.98;;
8232;SDS011;4157;48.074;9.952;2023-07-20T11:40:50;3.83;;;2.13;;
8232;SDS011;4157;48.074;9.952;2023-07-20T11:43:18;6.03;;;1.95;;
8232;SDS011;4157;48.074;9.952;2023-07-20T11:45:50;3.75;;;1.92;;
8232;SDS011;4157;48.074;9.952;2023-07-20T11:48:17;3.67;;;1.50;;
8232;SDS011;4157;48.074;9.952;2023-07-20T11:50:45;4.65;;;1.83;;
8232;SDS011;4157;48.074;9.952;2023-07-20T11:53:14;5.57;;;2.53;;
8232;SDS011;4157;48.074;9.952;2023-07-20T11:55:42;4.10;;;2.10;;
8232;SDS011;4157;48.074;9.952;2023-07-20T11:58:09;4.50;;;1.83;;
8232;SDS011;4157;48.074;9.952;2023-07-20T12:00:38;4.45;;;2.15;;
8232;SDS011;4157;48.074;9.952;2023-07-20T12:03:07;3.90;;;2.05;;
8232;SDS011;4157;48.074;9.952;2023-07-20T12:05:35;6.32;;;2.22;;
8232;SDS011;4157;48.074;9.952;2023-07-20T12:08:03;10.10;;;2.20;;
8232;SDS011;4157;48.074;9.952;2023-07-20T12:10:31;4.03;;;1.95;;
8232;SDS011;4157;48.074;9.952;2023-07-20T12:13:01;5.70;;;2.10;;
8232;SDS011;4157;48.074;9.952;2023-07-20T12:15:29;6.25;;;1.80;;
8232;SDS011;4157;48.074;9.952;2023-07-20T12:17:58;5.43;;;2.20;;
8232;SDS011;4157;48.074;9.952;2023-07-20T12:20:28;4.35;;;1.95;;
8232;SDS011;4157;48.074;9.952;2023-07-20T12:22:56;5.20;;;2.00;;
8232;SDS011;4157;48.074;9.952;2023-07-20T12:25:32;6.13;;;2.00;;
8232;SDS011;4157;48.074;9.952;2023-07-20T12:28:00;5.00;;;1.92;;
8232;SDS011;4157;48.074;9.952;2023-07-20T12:30:29;3.50;;;1.85;;
8232;SDS011;4157;48.074;9.952;2023-07-20T12:32:57;3.38;;;1.70;;
8232;SDS011;4157;48.074;9.952;2023-07-20T12:35:24;4.22;;;1.98;;
8232;SDS011;4157;48.074;9.952;2023-07-20T12:37:53;4.10;;;1.60;;
8232;SDS011;4157;48.074;9.952;2023-07-20T12:40:21;4.72;;;1.90;;
8232;SDS011;4157;48.074;9.952;2023-07-20T12:42:49;4.60;;;1.63;;
8232;SDS011;4157;48.074;9.952;2023-07-20T12:45:16;4.43;;;1.90;;
8232;SDS011;4157;48.074;9.952;2023-07-20T12:47:44;4.10;;;1.63;;
8232;SDS011;4157;48.074;9.952;2023-07-20T12:50:12;5.40;;;2.00;;
8232;SDS011;4157;48.074;9.952;2023-07-20T12:52:40;4.93;;;1.90;;
8232;SDS011;4157;48.074;9.952;2023-07-20T12:55:09;6.50;;;1.90;;
8232;SDS011;4157;48.074;9.952;2023-07-20T12:57:37;5.20;;;1.88;;
8232;SDS011;4157;48.074;9.952;2023-07-20T13:00:06;4.47;;;1.52;;
8232;SDS011;4157;48.074;9.952;2023-07-20T13:02:34;4.65;;;1.73;;
8232;SDS011;4157;48.074;9.952;2023-07-20T13:05:02;7.32;;;1.65;;
8232;SDS011;4157;48.074;9.952;2023-07-20T13:07:30;2.88;;;1.45;;
8232;SDS011;4157;48.074;9.952;2023-07-20T13:09:58;2.53;;;1.40;;
8232;SDS011;4157;48.074;9.952;2023-07-20T13:12:29;4.85;;;1.75;;
8232;SDS011;4157;48.074;9.952;2023-07-20T13:14:57;2.90;;;1.50;;
8232;SDS011;4157;48.074;9.952;2023-07-20T13:17:26;4.63;;;2.00;;
8232;SDS011;4157;48.074;9.952;2023-07-20T13:19:54;4.60;;;1.73;;
8232;SDS011;4157;48.074;9.952;2023-07-20T13:22:21;3.95;;;1.75;;
8232;SDS011;4157;48.074;9.952;2023-07-20T13:24:49;4.85;;;1.73;;
8232;SDS011;4157;48.074;9.952;2023-07-20T13:27:17;4.70;;;2.00;;
8232;SDS011;4157;48.074;9.952;2023-07-20T13:29:46;4.10;;;1.70;;
8232;SDS011;4157;48.074;9.952;2023-07-20T13:32:14;4.32;;;1.90;;
8232;SDS011;4157;48.074;9.952;2023-07-20T13:34:43;4.40;;;1.70;;
8232;SDS011;4157;48.074;9.952;2023-07-20T13:37:11;4.43;;;1.40;;
8232;SDS011;4157;48.074;9.952;2023-07-20T13:39:39;4.75;;;1.55;;
8232;SDS011;4157;48.074;9.952;2023-07-20T13:42:07;4.90;;;1.83;;
8232;SDS011;4157;48.074;9.952;2023-07-20T13:44:36;4.13;;;1.50;;
8232;SDS011;4157;48.074;9.952;2023-07-20T13:47:05;3.30;;;1.60;;
8232;SDS011;4157;48.074;9.952;2023-07-20T13:49:33;3.50;;;1.60;;
8232;SDS011;4157;48.074;9.952;2023-07-20T13:52:02;3.92;;;1.80;;
8232;SDS011;4157;48.074;9.952;2023-07-20T13:54:29;3.40;;;1.77;;
8232;SDS011;4157;48.074;9.952;2023-07-20T13:56:57;6.35;;;2.13;;
8232;SDS011;4157;48.074;9.952;2023-07-20T13:59:25;5.60;;;1.85;;
8232;SDS011;4157;48.074;9.952;2023-07-20T14:01:52;4.60;;;1.67;;
8232;SDS011;4157;48.074;9.952;2023-07-20T14:04:21;6.82;;;1.70;;
8232;SDS011;4157;48.074;9.952;2023-07-20T14:06:49;4.05;;;1.60;;
8232;SDS011;4157;48.074;9.952;2023-07-20T14:09:17;4.95;;;1.60;;
8232;SDS011;4157;48.074;9.952;2023-07-20T14:11:45;5.63;;;1.92;;
8232;SDS011;4157;48.074;9.952;2023-07-20T14:14:13;6.93;;;1.55;;
8232;SDS011;4157;48.074;9.952;2023-07-20T14:16:40;4.78;;;1.73;;
8232;SDS011;4157;48.074;9.952;2023-07-20T14:19:08;9.43;;;2.13;;
8232;SDS011;4157;48.074;9.952;2023-07-20T14:21:37;4.82;;;1.90;;
8232;SDS011;4157;48.074;9.952;2023-07-20T14:24:05;3.17;;;1.33;;
8232;SDS011;4157;48.074;9.952;2023-07-20T14:26:32;5.15;;;1.75;;
8232;SDS011;4157;48.074;9.952;2023-07-20T14:29:01;4.20;;;1.83;;
8232;SDS011;4157;48.074;9.952;2023-07-20T14:31:28;4.28;;;1.80;;
8232;SDS011;4157;48.074;9.952;2023-07-20T14:33:56;5.60;;;1.90;;
8232;SDS011;4157;48.074;9.952;2023-07-20T14:36:24;4.70;;;1.58;;
8232;SDS011;4157;48.074;9.952;2023-07-20T14:38:53;5.07;;;1.77;;
8232;SDS011;4157;48.074;9.952;2023-07-20T14:41:20;3.47;;;1.77;;
8232;SDS011;4157;48.074;9.952;2023-07-20T14:43:48;5.68;;;2.03;;
8232;SDS011;4157;48.074;9.952;2023-07-20T14:46:16;5.55;;;1.98;;
8232;SDS011;4157;48.074;9.952;2023-07-20T14:48:43;4.65;;;2.00;;
8232;SDS011;4157;48.074;9.952;2023-07-20T14:51:11;5.53;;;1.70;;
8232;SDS011;4157;48.074;9.952;2023-07-20T14:53:39;3.78;;;1.70;;
8232;SDS011;4157;48.074;9.952;2023-07-20T14:56:08;4.15;;;1.63;;
8232;SDS011;4157;48.074;9.952;2023-07-20T14:58:36;4.80;;;1.92;;
8232;SDS011;4157;48.074;9.952;2023-07-20T15:01:03;6.32;;;2.15;;
8232;SDS011;4157;48.074;9.952;2023-07-20T15:03:31;6.82;;;1.83;;
8232;SDS011;4157;48.074;9.952;2023-07-20T15:05:59;4.72;;;1.63;;
8232;SDS011;4157;48.074;9.952;2023-07-20T15:08:26;4.10;;;1.60;;
8232;SDS011;4157;48.074;9.952;2023-07-20T15:10:54;5.20;;;1.90;;
8232;SDS011;4157;48.074;9.952;2023-07-20T15:13:23;3.85;;;1.67;;
8232;SDS011;4157;48.074;9.952;2023-07-20T15:15:51;7.10;;;1.90;;
8232;SDS011;4157;48.074;9.952;2023-07-20T15:18:19;4.05;;;1.77;;
8232;SDS011;4157;48.074;9.952;2023-07-20T15:20:46;3.17;;;1.55;;
8232;SDS011;4157;48.074;9.952;2023-07-20T15:23:19;3.92;;;1.52;;
8232;SDS011;4157;48.074;9.952;2023-07-20T15:25:46;3.25;;;1.83;;
8232;SDS011;4157;48.074;9.952;2023-07-20T15:28:14;4.97;;;1.70;;
8232;SDS011;4157;48.074;9.952;2023-07-20T15:30:43;3.85;;;1.75;;